Time;durP1;ratioP1;P1;durP2;ratioP2;P2;SDS_P1;SDS_P2;PMS_P1;PMS_P2;Temp;Humidity;BMP_temperature;BMP_pressure;BME280_temperature;BME280_humidity;BME280_pressure;Samples;Min_cycle;Max_cycle;Signal;HPM_P1;HPM_P2
2023/08/13 00:00:21;;;;;;;9.82;5.78;;;20.80;86.80;;;;;;9957507;29;20220;-82
2023/08/13 00:05:42;;;;;;;8.63;6.57;;;20.80;1.00;;;;;;9958847;29;20261;-81
2023/08/13 00:11:09;;;;;;;10.25;6.60;;;20.70;12.90;;;;;;9957690;29;20487;-82
2023/08/13 00:16:30;;;;;;;9.90;6.60;;;20.60;99.90;;;;;;9958012;29;20236;-81
2023/08/13 00:21:51;;;;;;;8.02;5.70;;;20.50;1.00;;;;;;9971221;29;20292;-81
2023/08/13 00:27:18;;;;;;;13.30;6.68;;;20.40;1.00;;;;;;9996049;29;20207;-81
2023/08/13 00:32:39;;;;;;;9.10;6.50;;;20.40;99.90;;;;;;9946471;29;20243;-81
2023/08/13 00:38:01;;;;;;;7.97;6.15;;;20.20;99.90;;;;;;9956399;29;20314;-81
2023/08/13 00:43:22;;;;;;;6.75;4.97;;;20.20;1.00;;;;;;9949238;29;20515;-81
2023/08/13 00:48:43;;;;;;;8.30;6.28;;;20.10;1.00;;;;;;9955549;29;20239;-81
2023/08/13 00:54:07;;;;;;;11.95;6.47;;;20.00;1.00;;;;;;9955055;29;20212;-82
2023/08/13 00:59:30;;;;;;;10.07;6.35;;;19.90;1.00;;;;;;9942937;29;20216;-81
2023/08/13 01:04:51;;;;;;;8.75;6.05;;;19.90;1.00;;;;;;9969132;29;20205;-81
2023/08/13 01:10:34;;;;;;;7.65;6.35;;;19.90;1.00;;;;;;9968193;29;20457;-81
2023/08/13 01:15:58;;;;;;;8.32;6.05;;;19.90;1.00;;;;;;9968381;29;20443;-82
2023/08/13 01:21:19;;;;;;;8.70;6.13;;;19.90;1.00;;;;;;9955531;29;20282;-81
2023/08/13 01:27:08;;;;;;;11.20;5.22;;;19.90;1.00;;;;;;10018299;29;20279;-82
2023/08/13 01:32:36;;;;;;;5.80;5.20;;;19.80;1.00;;;;;;9934516;29;20265;-82
2023/08/13 01:37:59;;;;;;;8.10;6.25;;;19.70;1.00;;;;;;9937682;29;20427;-81
2023/08/13 01:43:20;;;;;;;6.05;5.00;;;19.60;1.00;;;;;;9948450;29;20235;-81
2023/08/13 01:48:41;;;;;;;8.57;6.05;;;19.60;1.00;;;;;;9935297;29;20241;-81
2023/08/13 01:54:03;;;;;;;8.75;5.35;;;19.60;1.00;;;;;;9942051;29;20541;-81
2023/08/13 01:59:24;;;;;;;9.63;6.25;;;19.60;1.00;;;;;;9941819;29;20296;-81
2023/08/13 02:04:45;;;;;;;9.82;6.65;;;19.40;1.00;;;;;;9960018;29;20215;-81
2023/08/13 02:10:07;;;;;;;6.70;5.53;;;19.40;1.00;;;;;;9940141;29;20244;-81
2023/08/13 02:15:28;;;;;;;8.63;6.03;;;19.30;1.00;;;;;;9941320;29;20463;-81
2023/08/13 02:20:50;;;;;;;7.38;6.20;;;19.30;1.00;;;;;;9953455;29;20216;-81
2023/08/13 02:26:13;;;;;;;6.93;5.65;;;19.30;1.00;;;;;;10000130;29;20223;-81
2023/08/13 02:31:34;;;;;;;7.43;6.13;;;19.20;1.00;;;;;;9977754;29;20212;-81
2023/08/13 02:36:55;;;;;;;6.70;5.70;;;19.10;1.00;;;;;;9928742;30;20266;-81
2023/08/13 02:42:17;;;;;;;12.85;8.60;;;19.10;1.00;;;;;;9919097;30;20244;-82
2023/08/13 02:47:38;;;;;;;10.85;6.93;;;19.10;1.00;;;;;;9951960;29;20208;-81
2023/08/13 02:53:00;;;;;;;8.68;6.80;;;19.10;1.00;;;;;;9952293;29;20247;-81
2023/08/13 02:58:21;;;;;;;9.05;6.03;;;19.00;1.00;;;;;;9952228;29;20323;-80
2023/08/13 03:03:43;;;;;;;7.82;6.82;;;19.00;1.00;;;;;;9927224;29;20227;-81
2023/08/13 03:09:19;;;;;;;10.70;7.05;;;18.90;1.00;;;;;;9959140;29;23188;-81
2023/08/13 03:14:41;;;;;;;7.10;6.03;;;18.80;1.00;;;;;;9952380;29;20518;-81
2023/08/13 03:20:03;;;;;;;8.50;6.70;;;18.70;1.00;;;;;;9964570;29;20219;-81
2023/08/13 03:25:25;;;;;;;8.30;6.47;;;18.70;1.00;;;;;;9955445;29;20196;-81
2023/08/13 03:30:45;;;;;;;11.20;6.93;;;18.70;1.00;;;;;;9964281;29;20235;-82
2023/08/13 03:36:07;;;;;;;10.07;7.55;;;18.70;1.00;;;;;;9951628;29;20494;-82
2023/08/13 03:41:29;;;;;;;13.80;11.48;;;18.60;1.00;;;;;;9951321;29;20208;-82
2023/08/13 03:46:51;;;;;;;17.08;11.77;;;18.60;1.00;;;;;;9982445;29;20215;-81
2023/08/13 03:52:12;;;;;;;12.50;10.48;;;18.50;1.00;;;;;;9960597;29;20219;-82
2023/08/13 03:57:34;;;;;;;10.93;8.88;;;18.50;1.00;;;;;;9964061;29;20254;-81
2023/08/13 04:02:56;;;;;;;11.57;7.85;;;18.50;1.00;;;;;;9963268;29;20235;-81
2023/08/13 04:08:18;;;;;;;8.93;7.22;;;18.60;1.00;;;;;;9951013;29;20271;-81
2023/08/13 04:13:39;;;;;;;8.50;6.72;;;18.50;1.00;;;;;;9928054;29;20209;-81
2023/08/13 04:19:00;;;;;;;9.38;6.75;;;18.50;1.00;;;;;;9954328;29;21176;-81
2023/08/13 04:24:22;;;;;;;9.13;7.00;;;18.40;1.00;;;;;;9974063;29;20217;-81
2023/08/13 04:29:45;;;;;;;8.60;6.47;;;18.40;1.00;;;;;;9985859;29;20220;-81
2023/08/13 04:35:08;;;;;;;10.90;5.88;;;18.40;1.00;;;;;;9956936;29;20228;-81
2023/08/13 04:40:29;;;;;;;7.43;6.00;;;18.40;1.00;;;;;;9956350;29;20224;-81
2023/08/13 04:45:50;;;;;;;7.32;6.00;;;18.50;1.00;;;;;;9979890;29;20279;-82
2023/08/13 04:51:15;;;;;;;9.60;5.85;;;18.60;1.00;;;;;;9987582;29;20220;-81
2023/08/13 04:56:36;;;;;;;5.55;4.95;;;18.70;1.00;;;;;;9956660;29;20260;-81
2023/08/13 05:01:58;;;;;;;6.75;5.15;;;18.90;1.00;;;;;;9956258;29;20283;-82
2023/08/13 05:07:19;;;;;;;6.28;5.05;;;19.10;1.00;;;;;;9956719;29;20201;-81
2023/08/13 05:12:40;;;;;;;6.38;5.40;;;19.30;1.00;;;;;;9967966;29;20208;-81
2023/08/13 05:18:03;;;;;;;6.40;5.25;;;19.40;1.00;;;;;;9956079;29;20240;-81
2023/08/13 05:23:25;;;;;;;5.00;4.50;;;19.80;1.00;;;;;;9980122;29;20214;-80
2023/08/13 05:28:46;;;;;;;5.22;4.40;;;19.80;1.00;;;;;;10006248;29;20298;-81
2023/08/13 05:34:08;;;;;;;5.05;4.43;;;20.00;1.00;;;;;;9963502;29;20219;-81
2023/08/13 05:39:29;;;;;;;5.53;4.53;;;20.10;1.00;;;;;;9953968;29;20277;-81
2023/08/13 05:44:50;;;;;;;5.40;4.20;;;20.30;1.00;;;;;;9982704;29;20203;-81
2023/08/13 05:50:11;;;;;;;4.22;3.83;;;20.30;1.00;;;;;;9993983;29;20262;-81
2023/08/13 05:55:34;;;;;;;5.13;4.50;;;20.50;1.00;;;;;;9955072;29;20228;-82
2023/08/13 06:00:55;;;;;;;6.07;4.63;;;;;;;;;;9953496;29;20204;-81
2023/08/13 06:06:18;;;;;;;6.03;5.18;;;20.50;99.90;;;;;;9980040;29;20226;-81
2023/08/13 06:11:39;;;;;;;5.75;4.35;;;20.70;99.90;;;;;;9965945;29;20215;-81
2023/08/13 06:17:01;;;;;;;7.07;4.18;;;21.40;1.00;;;;;;9954003;29;20235;-81
2023/08/13 06:22:28;;;;;;;4.30;3.72;;;21.50;1.00;;;;;;9971443;29;20448;-81
2023/08/13 06:27:49;;;;;;;5.25;3.80;;;21.40;1.00;;;;;;10004479;29;20222;-81
2023/08/13 06:33:10;;;;;;;3.30;3.10;;;21.70;1.00;;;;;;9958495;29;20208;-81
2023/08/13 06:38:32;;;;;;;3.63;2.92;;;22.30;99.90;;;;;;9953241;29;20251;-81
2023/08/13 06:43:53;;;;;;;3.70;2.55;;;22.60;1.00;;;;;;9960709;29;20204;-81
2023/08/13 06:49:15;;;;;;;2.85;2.40;;;22.80;1.00;;;;;;9988969;29;20542;-82
2023/08/13 06:54:36;;;;;;;4.25;2.40;;;23.00;1.00;;;;;;9952774;29;20268;-81
2023/08/13 06:59:57;;;;;;;3.65;2.97;;;23.10;57.80;;;;;;9964791;29;20370;-81
2023/08/13 07:05:19;;;;;;;3.85;2.40;;;22.80;99.90;;;;;;9929212;29;20221;-81
2023/08/13 07:10:40;;;;;;;4.53;2.50;;;22.70;99.90;;;;;;9938435;29;20439;-82
2023/08/13 07:16:01;;;;;;;2.50;2.20;;;22.90;1.00;;;;;;9939477;29;20236;-82
2023/08/13 07:21:22;;;;;;;2.72;2.22;;;22.80;1.00;;;;;;9950904;29;20216;-81
2023/08/13 07:26:44;;;;;;;4.28;2.47;;;22.90;1.00;;;;;;10003697;29;20375;-81
2023/08/13 07:32:05;;;;;;;3.55;2.50;;;22.90;1.00;;;;;;9980544;29;20224;-81
2023/08/13 07:37:27;;;;;;;2.88;2.63;;;22.90;66.20;;;;;;9964302;29;20504;-81
2023/08/13 07:42:48;;;;;;;2.90;2.25;;;22.80;56.30;;;;;;9950797;29;20279;-80
2023/08/13 07:48:09;;;;;;;2.53;2.33;;;22.50;1.00;;;;;;9951204;29;20239;-81
2023/08/13 07:53:31;;;;;;;2.83;2.60;;;22.20;99.90;;;;;;9938535;29;20559;-81
2023/08/13 07:58:52;;;;;;;4.28;2.50;;;22.00;84.20;;;;;;9954035;29;20254;-81
2023/08/13 08:04:14;;;;;;;2.85;2.10;;;22.20;1.00;;;;;;9970472;29;20318;-81
2023/08/13 08:09:35;;;;;;;3.65;2.58;;;22.70;99.90;;;;;;9958421;29;20204;-81
2023/08/13 08:14:56;;;;;;;4.30;2.55;;;23.10;1.00;;;;;;9971219;29;20215;-81
2023/08/13 08:20:17;;;;;;;4.07;2.50;;;23.00;1.00;;;;;;9970479;29;20511;-81
2023/08/13 08:25:38;;;;;;;3.67;3.13;;;22.80;99.90;;;;;;9970701;29;20204;-81
2023/08/13 08:31:00;;;;;;;3.75;2.90;;;22.70;1.00;;;;;;9969747;29;20239;-81
2023/08/13 08:36:21;;;;;;;2.72;2.53;;;22.90;1.00;;;;;;9982927;29;20236;-82
2023/08/13 08:41:48;;;;;;;4.55;3.10;;;22.70;99.90;;;;;;9956180;29;20284;-81
2023/08/13 08:47:10;;;;;;;3.75;2.55;;;22.50;99.90;;;;;;9971289;29;20208;-81
2023/08/13 08:52:34;;;;;;;5.05;2.83;;;23.60;1.00;;;;;;9955702;29;20283;-81
2023/08/13 08:57:56;;;;;;;5.25;2.72;;;24.00;99.90;;;;;;9944147;29;20260;-82
2023/08/13 09:03:17;;;;;;;4.10;2.88;;;23.80;99.90;;;;;;9968950;29;20216;-81
2023/08/13 09:08:38;;;;;;;2.38;1.98;;;25.20;99.90;;;;;;9969121;29;20285;-82
2023/08/13 09:14:01;;;;;;;2.47;2.00;;;27.00;1.00;;;;;;9967286;29;20216;-81
2023/08/13 09:19:27;;;;;;;3.08;2.33;;;28.20;1.00;;;;;;9969392;29;20273;-81
2023/08/13 09:24:49;;;;;;;4.22;2.50;;;28.80;1.00;;;;;;9977961;29;20211;-82
2023/08/13 09:30:14;;;;;;;11.48;2.97;;;28.90;1.00;;;;;;10002959;29;20210;-82
2023/08/13 09:35:36;;;;;;;2.92;2.10;;;27.90;1.00;;;;;;9947965;29;20252;-82
2023/08/13 09:40:57;;;;;;;2.45;2.03;;;27.00;1.00;;;;;;9954187;29;20223;-82
2023/08/13 09:46:27;;;;;;;3.63;1.73;;;27.40;1.00;;;;;;9955169;29;20211;-82
2023/08/13 09:51:52;;;;;;;3.92;1.98;;;27.90;1.00;;;;;;9967110;29;20220;-82
2023/08/13 09:57:18;;;;;;;1.63;1.45;;;28.70;1.00;;;;;;9980391;29;20228;-82
2023/08/13 10:02:42;;;;;;;2.38;1.30;;;28.60;1.00;;;;;;9953640;29;20240;-80
2023/08/13 10:08:05;;;;;;;1.58;1.13;;;27.60;1.00;;;;;;9954051;29;20218;-82
2023/08/13 10:13:26;;;;;;;1.27;1.08;;;26.70;1.00;;;;;;9952978;29;20216;-82
2023/08/13 10:18:48;;;;;;;2.38;1.10;;;26.80;1.00;;;;;;9954000;29;20248;-82
2023/08/13 10:24:11;;;;;;;1.10;0.88;;;27.00;1.00;;;;;;9957967;29;20467;-82
2023/08/13 10:29:40;;;;;;;1.23;0.90;;;27.70;1.00;;;;;;10004320;29;20200;-82
2023/08/13 10:35:23;;;;;;;2.17;1.00;;;27.90;1.00;;;;;;9945187;29;20404;-82
2023/08/13 10:40:58;;;;;;;1.55;1.00;;;27.70;1.00;;;;;;9952224;29;20204;-81
2023/08/13 10:46:19;;;;;;;3.97;1.10;;;28.00;1.00;;;;;;9978906;29;20214;-82
2023/08/13 10:51:41;;;;;;;1.90;1.08;;;28.90;1.00;;;;;;9952166;29;20530;-82
2023/08/13 10:57:02;;;;;;;1.90;1.23;;;29.00;1.00;;;;;;9952178;29;20573;-82
2023/08/13 11:02:24;;;;;;;1.08;0.98;;;28.90;1.00;;;;;;9951472;29;20211;-82
2023/08/13 11:07:46;;;;;;;1.17;1.05;;;29.40;1.00;;;;;;9952952;29;20220;-82
2023/08/13 11:13:08;;;;;;;1.58;1.10;;;29.40;1.00;;;;;;9950260;29;20205;-82
2023/08/13 11:18:30;;;;;;;1.73;1.30;;;;;;;;;;9964761;29;20229;-82
2023/08/13 11:23:51;;;;;;;4.57;1.30;;;30.40;1.00;;;;;;9953816;29;20231;-82
2023/08/13 11:29:13;;;;;;;1.42;1.13;;;29.60;1.00;;;;;;10002788;29;20229;-82
2023/08/13 11:34:34;;;;;;;1.30;1.17;;;28.60;1.00;;;;;;9960089;29;20522;-82
2023/08/13 11:39:56;;;;;;;1.70;1.30;;;27.70;1.00;;;;;;9972059;29;20240;-82
2023/08/13 11:45:18;;;;;;;1.20;1.10;;;27.60;1.00;;;;;;9969861;29;20200;-82
2023/08/13 11:50:40;;;;;;;2.83;1.08;;;28.20;1.00;;;;;;9970712;29;20209;-82
2023/08/13 11:56:03;;;;;;;0.95;0.85;;;28.20;1.00;;;;;;9957042;29;20224;-82
2023/08/13 12:01:24;;;;;;;2.67;1.38;;;27.90;1.00;;;;;;9957790;29;20240;-81
2023/08/13 12:06:49;;;;;;;1.52;1.10;;;27.60;1.00;;;;;;9970540;29;20205;-82
2023/08/13 12:12:10;;;;;;;1.20;1.10;;;28.20;1.00;;;;;;9957738;29;20434;-82
2023/08/13 12:17:36;;;;;;;1.80;1.20;;;27.70;1.00;;;;;;9958483;29;20277;-82
2023/08/13 12:34:04;;;;;;;1.48;1.05;;;29.00;1.00;;;;;;9981709;29;20213;-82
2023/08/13 12:39:25;;;;;;;0.85;0.70;;;28.50;1.00;;;;;;9933731;29;20245;-82
2023/08/13 12:44:47;;;;;;;3.80;1.25;;;28.20;99.90;;;;;;9984560;29;20212;-81
2023/08/13 12:50:08;;;;;;;1.20;1.05;;;28.50;99.90;;;;;;9955113;29;20525;-81
2023/08/13 12:55:29;;;;;;;2.05;1.10;;;28.50;99.90;;;;;;9969448;29;20216;-81
2023/08/13 13:06:57;;;;;;;2.00;1.10;;;28.70;99.90;;;;;;9974085;29;20217;-81
2023/08/13 13:20:10;;;;;;;2.65;1.20;;;28.30;99.90;;;;;;9967937;29;20221;-81
2023/08/13 13:25:32;;;;;;;3.20;1.42;;;27.60;99.90;;;;;;9955886;29;20295;-81
2023/08/13 13:30:53;;;;;;;5.20;1.50;;;27.00;99.90;;;;;;9969603;29;20219;-81
2023/08/13 13:36:14;;;;;;;4.30;1.60;;;27.00;99.90;;;;;;9983705;29;20592;-84
2023/08/13 13:41:36;;;;;;;7.72;1.60;;;27.40;99.90;;;;;;9953403;29;20240;-81
2023/08/13 13:46:57;;;;;;;4.20;1.45;;;27.30;99.90;;;;;;9967980;29;20204;-81
2023/08/13 13:52:18;;;;;;;2.80;1.40;;;27.30;99.90;;;;;;9941074;29;20211;-82
2023/08/13 13:57:40;;;;;;;5.25;1.73;;;27.00;99.90;;;;;;9954415;29;20276;-81
2023/08/13 14:03:01;;;;;;;5.40;2.20;;;26.90;99.90;;;;;;9966371;29;20528;-81
2023/08/13 14:08:23;;;;;;;4.93;1.50;;;26.60;99.90;;;;;;9936774;29;20245;-82
2023/08/13 14:13:44;;;;;;;6.13;1.60;;;26.50;99.90;;;;;;9953295;29;20303;-81
2023/08/13 14:19:05;;;;;;;4.57;1.70;;;26.50;99.90;;;;;;9953647;29;20307;-81
2023/08/13 14:24:27;;;;;;;4.43;1.30;;;26.50;99.90;;;;;;9940480;29;20215;-82
2023/08/13 14:29:49;;;;;;;5.82;1.85;;;26.40;99.90;;;;;;9952479;29;20212;-81
2023/08/13 14:35:10;;;;;;;4.85;1.33;;;26.50;99.90;;;;;;9991038;29;20253;-81
2023/08/13 14:40:31;;;;;;;4.40;1.73;;;26.40;99.90;;;;;;9952072;29;20305;-82
2023/08/13 14:45:52;;;;;;;6.10;2.42;;;26.40;99.90;;;;;;9965491;29;20197;-82
2023/08/13 14:51:14;;;;;;;2.33;1.30;;;26.10;99.90;;;;;;9951781;29;20216;-82
2023/08/13 14:56:35;;;;;;;5.05;1.33;;;26.00;99.90;;;;;;9952650;29;20379;-82
2023/08/13 15:01:56;;;;;;;4.18;1.63;;;25.80;99.90;;;;;;9951637;29;20219;-82
2023/08/13 15:07:17;;;;;;;4.10;1.02;;;25.70;99.90;;;;;;9951983;29;20211;-82
2023/08/13 15:12:39;;;;;;;5.40;1.67;;;25.70;99.90;;;;;;9951015;29;20257;-82
2023/08/13 15:18:03;;;;;;;7.72;1.75;;;25.50;99.90;;;;;;9952584;29;20224;-82
2023/08/13 15:23:24;;;;;;;5.20;1.80;;;25.40;99.90;;;;;;9937316;29;20282;-82
2023/08/13 15:28:45;;;;;;;4.30;1.77;;;25.30;99.90;;;;;;9951469;29;20212;-82
2023/08/13 15:34:08;;;;;;;4.70;1.85;;;25.20;99.90;;;;;;9966990;29;20216;-81
2023/08/13 15:39:29;;;;;;;3.33;1.30;;;25.20;99.90;;;;;;9964368;29;20539;-82
2023/08/13 15:44:50;;;;;;;3.55;1.63;;;25.00;99.90;;;;;;9950650;29;20283;-81
2023/08/13 15:50:11;;;;;;;6.07;2.00;;;24.90;99.90;;;;;;9951347;29;20211;-82
2023/08/13 15:55:36;;;;;;;5.70;1.63;;;24.80;99.90;;;;;;9950259;29;20243;-82
2023/08/13 16:00:59;;;;;;;3.45;1.70;;;24.80;99.90;;;;;;9950769;29;20228;-82
2023/08/13 16:06:20;;;;;;;4.70;1.95;;;24.60;99.90;;;;;;9962274;29;20232;-82
2023/08/13 16:11:41;;;;;;;5.55;1.70;;;24.40;99.90;;;;;;9950874;29;20200;-81
2023/08/13 16:17:02;;;;;;;5.47;2.17;;;24.30;99.90;;;;;;9956907;29;20251;-82
2023/08/13 16:22:24;;;;;;;3.60;1.45;;;24.20;99.90;;;;;;9956992;29;20240;-82
2023/08/13 16:27:45;;;;;;;5.47;2.20;;;24.20;99.90;;;;;;9956752;29;20296;-81
2023/08/13 16:33:06;;;;;;;3.75;1.42;;;24.10;99.90;;;;;;9986692;29;20256;-81
2023/08/13 16:38:28;;;;;;;5.35;1.80;;;24.10;99.90;;;;;;9969989;29;20242;-81
2023/08/13 16:43:49;;;;;;;3.85;1.50;;;24.00;99.90;;;;;;9969040;29;20285;-81
2023/08/13 16:49:10;;;;;;;6.07;1.60;;;24.00;99.90;;;;;;9985657;29;20204;-81
2023/08/13 16:54:31;;;;;;;3.58;1.70;;;23.90;99.90;;;;;;9995635;29;20208;-81
2023/08/13 16:59:52;;;;;;;4.53;1.65;;;23.70;99.90;;;;;;9956469;29;20307;-81
2023/08/13 17:05:13;;;;;;;5.25;2.00;;;23.70;99.90;;;;;;9955453;29;20204;-81
2023/08/13 17:10:34;;;;;;;4.90;1.70;;;23.60;99.90;;;;;;9969156;29;20192;-81
2023/08/13 17:16:01;;;;;;;5.18;2.50;;;23.50;99.90;;;;;;9968255;29;20212;-81
2023/08/13 17:21:22;;;;;;;4.60;2.45;;;23.40;99.90;;;;;;9968958;29;20265;-81
2023/08/13 17:26:43;;;;;;;5.28;2.90;;;23.20;99.90;;;;;;9968741;29;20215;-81
2023/08/13 17:32:05;;;;;;;4.68;3.15;;;23.10;99.90;;;;;;9961382;29;20209;-81
2023/08/13 17:37:26;;;;;;;6.70;3.28;;;23.00;99.90;;;;;;9967393;29;20538;-81
2023/08/13 17:42:47;;;;;;;6.68;4.45;;;22.90;99.90;;;;;;9937958;29;20255;-81
2023/08/13 17:48:09;;;;;;;15.75;8.13;;;22.80;1.00;;;;;;9967448;29;20305;-81
2023/08/13 17:53:30;;;;;;;16.73;7.85;;;22.70;1.00;;;;;;9941097;29;20220;-81
2023/08/13 17:58:52;;;;;;;12.95;7.35;;;22.60;1.00;;;;;;9942236;29;20259;-80
2023/08/13 18:04:16;;;;;;;14.45;8.43;;;22.30;1.00;;;;;;9953291;29;20212;-81
2023/08/13 18:09:38;;;;;;;12.20;6.70;;;22.30;1.00;;;;;;9954227;29;20288;-81
2023/08/13 18:14:59;;;;;;;11.30;6.25;;;22.10;1.00;;;;;;9965935;29;20279;-81
2023/08/13 18:20:20;;;;;;;10.38;5.85;;;22.10;1.00;;;;;;9953228;29;20305;-81
2023/08/13 18:25:41;;;;;;;10.30;6.15;;;21.90;1.00;;;;;;9965247;29;20493;-81
2023/08/13 18:31:03;;;;;;;12.32;8.07;;;21.80;1.00;;;;;;9955755;29;20295;-81
2023/08/13 18:36:24;;;;;;;12.63;7.65;;;21.70;1.00;;;;;;9969709;29;20270;-81
2023/08/13 18:41:45;;;;;;;14.88;8.55;;;21.60;1.00;;;;;;9952598;29;20278;-81
2023/08/13 18:47:07;;;;;;;16.73;8.80;;;21.50;1.00;;;;;;9962689;29;20208;-81
2023/08/13 18:52:28;;;;;;;20.67;9.43;;;21.40;1.00;;;;;;9949474;29;20206;-81
2023/08/13 18:57:49;;;;;;;19.40;8.55;;;21.20;1.00;;;;;;9978453;29;20443;-81
2023/08/13 19:03:11;;;;;;;15.02;8.15;;;21.00;1.00;;;;;;9951774;29;20250;-81
2023/08/13 19:08:34;;;;;;;17.83;9.20;;;20.70;1.00;;;;;;9951949;29;20219;-81
2023/08/13 19:13:55;;;;;;;13.18;8.40;;;20.60;1.00;;;;;;9964410;29;20286;-81
2023/08/13 19:19:16;;;;;;;12.82;8.80;;;20.50;1.00;;;;;;9965700;29;20224;-81
2023/08/13 19:24:37;;;;;;;15.10;8.50;;;20.40;93.20;;;;;;9951289;29;20216;-81
2023/08/13 19:29:59;;;;;;;15.07;8.32;;;;;;;;;;9964474;29;20208;-81
2023/08/13 19:35:20;;;;;;;14.15;9.43;;;;;;;;;;9953294;29;20487;-81
2023/08/13 19:40:41;;;;;;;17.40;9.60;;;20.10;99.90;;;;;;9964438;29;20247;-80
2023/08/13 19:46:03;;;;;;;19.05;11.15;;;20.00;99.90;;;;;;9956621;29;20200;-80
2023/08/13 19:51:24;;;;;;;18.75;11.30;;;20.00;99.90;;;;;;9961476;29;20204;-81
2023/08/13 19:56:45;;;;;;;19.40;8.93;;;19.80;1.00;;;;;;9950616;29;20404;-80
2023/08/13 20:02:06;;;;;;;13.80;7.35;;;19.70;1.00;;;;;;9970941;29;20473;-80
2023/08/13 20:07:28;;;;;;;11.65;6.75;;;19.50;1.00;;;;;;9958333;29;20212;-80
2023/08/13 20:12:49;;;;;;;13.35;5.88;;;19.40;1.00;;;;;;9957512;29;20296;-80
2023/08/13 20:18:10;;;;;;;13.63;8.05;;;19.40;1.00;;;;;;9945332;29;20231;-81
2023/08/13 20:23:32;;;;;;;13.57;7.18;;;19.40;1.00;;;;;;9957152;29;20522;-80
2023/08/13 20:28:53;;;;;;;9.82;6.40;;;19.40;1.00;;;;;;9971764;29;20200;-80
2023/08/13 20:34:14;;;;;;;12.98;6.85;;;19.30;1.00;;;;;;9971005;29;20248;-80
2023/08/13 20:39:35;;;;;;;28.88;13.27;;;19.20;24.60;;;;;;9985342;29;20234;-79
2023/08/13 20:44:57;;;;;;;19.38;11.25;;;19.20;99.90;;;;;;9956501;29;20220;-79
2023/08/13 20:57:26;;;;;;;22.20;12.07;;;19.00;1.00;;;;;;9970549;29;20259;-81
2023/08/13 21:02:47;;;;;;;22.92;9.65;;;19.10;99.90;;;;;;9967885;29;20279;-81
2023/08/13 21:08:08;;;;;;;14.30;7.80;;;19.00;1.00;;;;;;9979940;29;20272;-81
2023/08/13 21:13:29;;;;;;;20.63;9.70;;;19.00;1.00;;;;;;9984234;29;20288;-81
2023/08/13 21:18:51;;;;;;;18.05;9.63;;;18.80;99.90;;;;;;9968805;29;20232;-81
2023/08/13 21:24:12;;;;;;;15.35;9.18;;;18.70;1.00;;;;;;9968079;29;20406;-81
2023/08/13 21:29:33;;;;;;;12.00;7.15;;;18.70;1.00;;;;;;9981324;29;20399;-81
2023/08/13 21:34:54;;;;;;;13.00;7.82;;;18.70;99.90;;;;;;9967630;29;20212;-81
2023/08/13 21:40:16;;;;;;;14.07;7.57;;;18.60;99.90;;;;;;9976872;29;20239;-81
2023/08/13 21:45:37;;;;;;;13.15;7.32;;;18.60;99.90;;;;;;9967727;29;20208;-81
2023/08/13 21:50:58;;;;;;;13.40;7.57;;;18.70;99.90;;;;;;9967856;29;20200;-81
2023/08/13 21:56:20;;;;;;;15.38;7.88;;;18.60;1.00;;;;;;9954932;29;20223;-81
2023/08/13 22:01:41;;;;;;;16.48;8.32;;;18.60;99.90;;;;;;9966365;29;20212;-81
2023/08/13 22:07:02;;;;;;;16.48;7.90;;;18.50;99.90;;;;;;9954394;29;20295;-81
2023/08/13 22:12:24;;;;;;;14.73;7.43;;;18.50;1.00;;;;;;9966047;29;20212;-81
2023/08/13 22:17:45;;;;;;;16.25;6.55;;;18.40;99.90;;;;;;9953375;29;20237;-81
2023/08/13 22:23:07;;;;;;;11.80;6.13;;;18.40;99.90;;;;;;9965684;29;20212;-81
2023/08/13 22:28:28;;;;;;;10.75;5.53;;;18.40;1.00;;;;;;9978149;29;20212;-81
2023/08/13 22:33:49;;;;;;;10.35;5.22;;;18.40;1.00;;;;;;9952293;29;20280;-82
2023/08/13 22:39:11;;;;;;;14.25;6.13;;;18.30;1.00;;;;;;9940316;29;20262;-81
2023/08/13 22:44:32;;;;;;;14.07;5.40;;;18.30;1.00;;;;;;10003738;29;20200;-81
2023/08/13 22:49:53;;;;;;;8.50;4.97;;;18.20;1.00;;;;;;9976467;29;20216;-81
2023/08/13 22:55:14;;;;;;;10.18;5.20;;;18.30;90.00;;;;;;9952944;29;20209;-82
2023/08/13 23:00:36;;;;;;;13.15;6.20;;;18.20;99.90;;;;;;9939164;29;20419;-81
2023/08/13 23:05:57;;;;;;;11.38;5.47;;;18.10;1.00;;;;;;9965050;29;20232;-81
2023/08/13 23:11:21;;;;;;;10.38;5.50;;;18.10;1.00;;;;;;9963762;29;20212;-82
2023/08/13 23:16:42;;;;;;;10.48;5.75;;;18.20;30.20;;;;;;9952438;29;20209;-82
2023/08/13 23:22:03;;;;;;;8.25;4.97;;;18.20;1.00;;;;;;9965052;29;20216;-81
2023/08/13 23:27:25;;;;;;;11.73;5.45;;;18.10;1.00;;;;;;9951114;29;20227;-82
2023/08/13 23:32:47;;;;;;;9.15;5.30;;;18.10;92.90;;;;;;9952192;29;20398;-82
2023/08/13 23:38:08;;;;;;;12.90;4.80;;;18.00;99.90;;;;;;9950150;29;20295;-81
2023/08/13 23:43:29;;;;;;;8.98;4.20;;;18.00;99.90;;;;;;9960020;29;20264;-81
2023/08/13 23:48:51;;;;;;;8.48;4.32;;;18.00;99.90;;;;;;9961772;29;20212;-82
2023/08/13 23:54:12;;;;;;;7.25;4.47;;;18.00;1.00;;;;;;9961744;29;20239;-82
2023/08/13 23:59:33;;;;;;;6.13;4.20;;;18.00;1.00;;;;;;9950407;29;20255;-82
